Time;durP1;ratioP1;P1;durP2;ratioP2;P2;SDS_P1;SDS_P2;PMS_P1;PMS_P2;Temp;Humidity;BMP_temperature;BMP_pressure;BME280_temperature;BME280_humidity;BME280_pressure;Samples;Min_cycle;Max_cycle;Signal;HPM_P1;HPM_P2
2022/09/20 00:01:34;;;;;;;;;;;;;;;;;;;;;
2022/09/20 00:04:38;;;;;;;9.60;1.67;;;;;;;;;;4927635;29;20031;-89
2022/09/20 00:07:20;;;;;;;;;;;;;;;;;;;;;
2022/09/20 00:09:56;;;;;;;13.27;2.20;;;;;;;;;;4923888;29;20036;-88
2022/09/20 00:12:29;;;;;;;8.95;1.92;;;;;;;;;;4908917;29;20058;-89
2022/09/20 00:15:04;;;;;;;9.10;1.70;;;;;;;;;;4908851;29;20039;-87
2022/09/20 00:17:33;;;;;;;6.47;1.95;;;;;;;;;;4933908;29;20036;-88
2022/09/20 00:20:42;;;;;;;5.55;1.52;;;;;;;;;;4933803;29;21052;-87
2022/09/20 00:26:04;;;;;;;20.95;2.15;;;;;;;;;;4887529;29;20136;-89
2022/09/20 00:29:12;;;;;;;20.35;1.92;;;;;;;;;;4878196;29;20100;-88
2022/09/20 00:32:24;;;;;;;8.10;1.65;;;;;;;;;;4877267;29;20076;-87
2022/09/20 00:35:09;;;;;;;16.25;2.45;;;;;;;;;;4944881;28;20042;-88
2022/09/20 00:38:17;;;;;;;21.07;2.33;;;;;;;;;;4931989;29;20035;-87
2022/09/20 00:40:54;;;;;;;9.82;1.98;;;;;;;;;;4870324;29;20142;-88
2022/09/20 00:46:56;;;;;;;8.70;2.10;;;;;;;;;;4871491;29;20025;-89
2022/09/20 00:56:18;;;;;;;10.87;1.73;;;;;;;;;;4911603;29;20043;-88
2022/09/20 01:02:24;;;;;;;10.48;2.10;;;;;;;;;;4882754;29;20060;-88
2022/09/20 01:11:43;;;;;;;9.77;2.53;;;;;;;;;;4884180;29;20056;-88
2022/09/20 01:14:28;;;;;;;11.05;1.83;;;;;;;;;;4863630;29;20040;-88
2022/09/20 01:17:40;;;;;;;9.70;1.75;;;;;;;;;;4872677;29;20078;-88
2022/09/20 01:20:18;;;;;;;8.45;1.52;;;;;;;;;;4849349;29;20040;-87
2022/09/20 01:23:06;;;;;;;10.77;1.70;;;;;;;;;;4907639;29;20096;-87
2022/09/20 01:25:37;;;;;;;15.73;2.13;;;;;;;;;;4909882;29;20554;-87
2022/09/20 02:24:35;;;;;;;12.45;1.80;;;;;;;;;;4952969;28;20043;-87
2022/09/20 02:27:01;;;;;;;4.88;1.80;;;;;;;;;;4956105;28;20035;-88
2022/09/20 02:29:35;;;;;;;19.45;2.30;;;;;;;;;;4946330;28;20038;-89
2022/09/20 02:32:23;;;;;;;7.50;1.80;;;;;;;;;;4951230;28;20054;-89
2022/09/20 02:34:52;;;;;;;11.07;2.45;;;;;;;;;;4924679;29;20483;-88
2022/09/20 02:37:41;;;;;;;13.43;2.13;;;;;;;;;;4924686;28;20031;-88
2022/09/20 02:40:22;;;;;;;6.72;1.85;;;;;;;;;;4923280;28;20034;-88
2022/09/20 02:42:57;;;;;;;6.97;1.90;;;;;;;;;;4940442;28;20046;-88
2022/09/20 02:45:36;;;;;;;15.23;1.90;;;;;;;;;;4922014;28;20107;-88
2022/09/20 02:48:05;;;;;;;7.82;1.55;;;;;;;;;;4940091;28;20039;-88
2022/09/20 02:50:37;;;;;;;14.90;1.77;;;;;;;;;;4907532;29;20069;-88
2022/09/20 02:53:18;;;;;;;13.95;1.75;;;;;;;;;;4924338;29;20031;-88
2022/09/20 02:55:45;;;;;;;8.00;2.40;;;;;;;;;;4923717;28;20530;-89
2022/09/20 02:58:40;;;;;;;11.82;2.47;;;;;;;;;;4919995;28;20081;-89
2022/09/20 03:01:21;;;;;;;5.03;1.67;;;;;;;;;;4886613;29;20045;-88
2022/09/20 03:04:10;;;;;;;10.02;2.00;;;;;;;;;;4923742;29;20027;-89
2022/09/20 03:06:53;;;;;;;11.05;2.00;;;;;;;;;;4923003;28;20039;-90
2022/09/20 03:09:28;;;;;;;14.80;1.77;;;;;;;;;;4941410;28;20144;-88
2022/09/20 03:12:04;;;;;;;7.10;1.73;;;;;;;;;;4920444;28;20039;-87
2022/09/20 03:14:30;;;;;;;8.48;1.40;;;;;;;;;;4924825;29;20394;-89
2022/09/20 03:17:02;;;;;;;6.15;1.67;;;;;;;;;;4944175;28;20039;-89
2022/09/20 03:19:46;;;;;;;8.73;1.85;;;;;;;;;;4942909;28;20118;-89
2022/09/20 03:22:15;;;;;;;13.18;1.80;;;;;;;;;;4943849;28;20062;-88
2022/09/20 03:25:00;;;;;;;15.07;2.30;;;;;;;;;;4965581;28;20031;-88
2022/09/20 03:27:26;;;;;;;14.02;1.98;;;;;;;;;;4940820;28;20027;-88
2022/09/20 03:30:01;;;;;;;7.85;1.80;;;;;;;;;;4945439;28;20034;-88
2022/09/20 03:32:27;;;;;;;;;;;;;;;;;;4942989;28;20557;-87
2022/09/20 03:35:19;;;;;;;6.65;1.63;;;;;;;;;;4964941;28;19910;-88
2022/09/20 03:38:11;;;;;;;7.10;2.00;;;;;;;;;;4943108;28;20046;-88
2022/09/20 03:40:49;;;;;;;13.32;1.90;;;;;;;;;;4945002;28;20139;-87
2022/09/20 03:43:19;;;;;;;8.40;1.95;;;;;;;;;;4963650;28;20394;-87
2022/09/20 03:45:54;;;;;;;5.18;1.73;;;;;;;;;;4940539;28;20039;-87
2022/09/20 03:48:23;;;;;;;11.90;2.03;;;;;;;;;;4942178;28;20046;-88
2022/09/20 03:51:08;;;;;;;7.00;1.80;;;;;;;;;;4962275;28;20069;-87
2022/09/20 03:54:06;;;;;;;11.38;3.25;;;;;;;;;;4965435;28;20710;-88
2022/09/20 03:56:38;;;;;;;9.20;1.85;;;;;;;;;;4921596;28;20074;-88
2022/09/20 03:59:22;;;;;;;8.10;1.52;;;;;;;;;;4964303;28;20441;-89
2022/09/20 04:01:55;;;;;;;7.38;1.75;;;;;;;;;;4939874;28;20038;-88
2022/09/20 04:04:30;;;;;;;7.28;1.90;;;;;;;;;;4943607;28;20023;-88
2022/09/20 04:07:15;;;;;;;5.93;1.80;;;;;;;;;;4942211;28;20097;-89
2022/09/20 04:09:41;;;;;;;12.30;1.75;;;;;;;;;;4954793;28;20352;-89
2022/09/20 04:12:13;;;;;;;11.88;2.13;;;;;;;;;;4959885;28;20037;-88
2022/09/20 04:14:52;;;;;;;9.48;2.05;;;;;;;;;;4958780;28;20574;-90
2022/09/20 04:17:30;;;;;;;10.57;2.08;;;;;;;;;;4957599;28;20497;-90
2022/09/20 04:19:56;;;;;;;18.70;2.30;;;;;;;;;;4959720;28;20042;-89
2022/09/20 04:22:24;;;;;;;7.97;2.15;;;;;;;;;;4962605;28;20042;-89
2022/09/20 04:24:53;;;;;;;10.77;1.90;;;;;;;;;;4930380;28;20031;-88
2022/09/20 04:27:25;;;;;;;13.68;2.17;;;;;;;;;;4946067;28;20027;-88
2022/09/20 04:30:04;;;;;;;9.93;2.08;;;;;;;;;;4945016;28;20113;-89
2022/09/20 04:32:46;;;;;;;10.20;2.25;;;;;;;;;;4943275;28;20030;-90
2022/09/20 04:38:17;;;;;;;26.25;11.15;;;;;;;;;;4961461;28;20611;-89
2022/09/20 04:40:59;;;;;;;36.00;13.68;;;;;;;;;;4945420;28;20411;-89
2022/09/20 04:43:57;;;;;;;17.15;4.47;;;;;;;;;;4941751;28;20030;-88
2022/09/20 04:46:24;;;;;;;12.25;2.63;;;;;;;;;;4906521;28;20038;-88
2022/09/20 04:49:14;;;;;;;12.15;2.65;;;;;;;;;;4962693;28;20035;-88
2022/09/20 04:52:04;;;;;;;5.70;1.98;;;;;;;;;;4920017;28;20869;-89
2022/09/20 04:54:51;;;;;;;11.48;2.13;;;;;;;;;;4960009;28;20023;-88
2022/09/20 04:57:44;;;;;;;6.05;1.75;;;;;;;;;;4943077;28;20537;-88
2022/09/20 05:00:21;;;;;;;9.15;2.00;;;;;;;;;;4934238;28;20475;-88
2022/09/20 05:03:06;;;;;;;17.90;2.15;;;;;;;;;;4960658;28;20046;-91
2022/09/20 05:05:34;;;;;;;9.75;1.80;;;;;;;;;;4942612;28;20066;-89
2022/09/20 05:08:19;;;;;;;7.75;1.95;;;;;;;;;;4962247;28;20064;-89
2022/09/20 05:11:03;;;;;;;6.43;1.60;;;;;;;;;;4948591;28;20070;-89
2022/09/20 05:13:43;;;;;;;13.25;2.20;;;;;;;;;;4961819;28;20031;-89
2022/09/20 05:16:12;;;;;;;6.05;1.80;;;;;;;;;;4940497;28;20124;-90
2022/09/20 05:18:58;;;;;;;10.43;1.98;;;;;;;;;;4962879;28;20415;-88
2022/09/20 05:21:42;;;;;;;13.18;1.90;;;;;;;;;;4960004;28;20027;-89
2022/09/20 05:24:15;;;;;;;10.55;2.45;;;;;;;;;;4944788;28;20047;-89
2022/09/20 05:27:05;;;;;;;10.13;2.33;;;;;;;;;;4936164;28;20038;-89
2022/09/20 05:29:33;;;;;;;8.40;2.03;;;;;;;;;;4941553;28;20086;-88
2022/09/20 05:32:18;;;;;;;8.93;2.58;;;;;;;;;;4944170;28;20034;-89
2022/09/20 05:35:17;;;;;;;8.88;2.58;;;;;;;;;;4935956;28;20130;-89
2022/09/20 05:38:02;;;;;;;15.55;2.42;;;;;;;;;;4902580;28;20063;-89
2022/09/20 05:40:33;;;;;;;10.90;2.38;;;;;;;;;;4940252;28;20035;-90
2022/09/20 05:43:06;;;;;;;7.65;1.98;;;;;;;;;;4924825;29;20043;-87
2022/09/20 05:45:52;;;;;;;9.55;2.25;;;;;;;;;;4930224;28;20055;-87
2022/09/20 05:48:36;;;;;;;5.95;2.38;;;;;;;;;;4922529;29;20035;-87
2022/09/20 05:51:21;;;;;;;9.98;2.17;;;;;;;;;;4930706;28;20443;-87
2022/09/20 05:53:56;;;;;;;10.18;2.33;;;;;;;;;;4925243;28;20035;-87
2022/09/20 05:56:45;;;;;;;14.57;2.40;;;;;;;;;;4931605;29;20062;-87
2022/09/20 05:59:11;;;;;;;10.05;2.58;;;;;;;;;;4919530;28;20058;-87
2022/09/20 06:01:43;;;;;;;13.48;2.85;;;;;;;;;;4940759;28;20519;-87
2022/09/20 06:04:36;;;;;;;8.60;2.10;;;;;;;;;;4955945;28;20030;-87
2022/09/20 06:07:02;;;;;;;12.55;2.45;;;;;;;;;;4940535;28;20480;-86
2022/09/20 06:09:34;;;;;;;12.02;2.30;;;;;;;;;;4918304;29;20035;-87
2022/09/20 06:12:06;;;;;;;10.48;2.50;;;;;;;;;;4921486;28;20546;-87
2022/09/20 06:14:33;;;;;;;15.00;3.38;;;;;;;;;;4920573;28;20087;-87
2022/09/20 06:17:06;;;;;;;10.80;2.67;;;;;;;;;;4921471;28;20122;-87
2022/09/20 06:19:44;;;;;;;15.13;2.85;;;;;;;;;;4936004;28;20082;-87
2022/09/20 06:22:22;;;;;;;11.07;3.10;;;;;;;;;;4921262;28;20050;-87
2022/09/20 06:24:56;;;;;;;16.35;2.92;;;;;;;;;;4941269;28;20094;-87
2022/09/20 06:27:32;;;;;;;8.20;2.00;;;;;;;;;;4943038;28;20026;-87
2022/09/20 06:30:01;;;;;;;19.88;2.13;;;;;;;;;;4942345;28;20376;-88
2022/09/20 06:32:27;;;;;;;7.93;1.67;;;;;;;;;;4958481;28;20089;-87
2022/09/20 06:34:54;;;;;;;6.25;2.35;;;;;;;;;;4925424;28;20049;-87
2022/09/20 06:43:06;;;;;;;9.02;1.30;;;;;;;;;;4960005;28;20040;-88
2022/09/20 06:45:32;;;;;;;3.33;1.13;;;;;;;;;;4927225;28;20145;-88
2022/09/20 06:48:01;;;;;;;3.50;1.08;;;;;;;;;;4939696;28;20035;-89
2022/09/20 06:50:27;;;;;;;7.85;1.48;;;;;;;;;;4927244;28;20046;-88
2022/09/20 06:52:53;;;;;;;8.57;1.13;;;;;;;;;;4960998;28;20038;-88
2022/09/20 06:55:27;;;;;;;8.40;1.60;;;;;;;;;;4925228;28;20038;-88
2022/09/20 06:57:53;;;;;;;6.10;1.42;;;;;;;;;;4955803;28;20126;-88
2022/09/20 07:00:19;;;;;;;6.03;1.15;;;;;;;;;;4942833;28;20366;-87
2022/09/20 07:02:45;;;;;;;6.13;1.88;;;;;;;;;;4927141;28;20035;-87
2022/09/20 07:05:16;;;;;;;6.57;1.20;;;;;;;;;;4941645;28;20037;-88
2022/09/20 07:07:43;;;;;;;10.45;1.30;;;;;;;;;;4947470;28;20372;-88
2022/09/20 07:10:12;;;;;;;8.68;1.42;;;;;;;;;;4929322;28;20066;-87
2022/09/20 07:12:38;;;;;;;13.50;1.70;;;;;;;;;;4929296;28;20038;-89
2022/09/20 07:15:05;;;;;;;5.30;1.95;;;;;;;;;;4925931;28;20039;-88
2022/09/20 07:17:32;;;;;;;8.15;1.85;;;;;;;;;;4942129;28;20035;-88
2022/09/20 07:19:58;;;;;;;6.13;1.17;;;;;;;;;;4928982;28;20490;-88
2022/09/20 07:22:25;;;;;;;11.52;1.75;;;;;;;;;;4929182;28;20053;-88
2022/09/20 07:24:51;;;;;;;6.25;1.40;;;;;;;;;;4922922;28;20129;-89
2022/09/20 07:27:17;;;;;;;4.43;1.40;;;;;;;;;;4923666;28;21047;-87
2022/09/20 07:29:45;;;;;;;4.85;1.20;;;;;;;;;;4915067;29;20433;-89
2022/09/20 07:32:11;;;;;;;9.40;1.45;;;;;;;;;;4894117;29;20887;-88
2022/09/20 07:34:37;;;;;;;5.53;2.55;;;;;;;;;;4903700;29;20090;-88
2022/09/20 07:37:03;;;;;;;5.82;1.38;;;;;;;;;;4906581;29;20122;-89
2022/09/20 07:39:29;;;;;;;5.22;1.65;;;;;;;;;;4895753;29;20519;-89
2022/09/20 07:41:55;;;;;;;6.93;1.30;;;;;;;;;;4904015;29;20044;-89
2022/09/20 07:44:24;;;;;;;5.18;1.17;;;;;;;;;;4890801;29;20364;-89
2022/09/20 07:46:51;;;;;;;13.10;1.50;;;;;;;;;;4908022;29;20045;-89
2022/09/20 07:49:17;;;;;;;5.00;1.25;;;;;;;;;;4902610;29;20564;-89
2022/09/20 07:51:43;;;;;;;14.05;1.63;;;;;;;;;;4905805;29;20280;-89
2022/09/20 07:54:10;;;;;;;7.13;1.38;;;;;;;;;;4922411;29;20403;-89
2022/09/20 07:56:36;;;;;;;7.68;1.25;;;;;;;;;;4905486;29;20055;-89
2022/09/20 07:59:02;;;;;;;4.13;1.50;;;;;;;;;;4923853;29;20031;-89
2022/09/20 08:01:29;;;;;;;5.45;1.17;;;;;;;;;;4903826;29;20106;-89
2022/09/20 08:03:56;;;;;;;3.70;1.02;;;;;;;;;;4906656;29;20047;-89
2022/09/20 08:06:22;;;;;;;6.22;1.25;;;;;;;;;;4904230;29;20020;-89
2022/09/20 08:08:50;;;;;;;5.50;1.02;;;;;;;;;;4921084;29;20040;-89
2022/09/20 08:11:18;;;;;;;4.07;1.10;;;;;;;;;;4889266;29;20039;-90
2022/09/20 08:13:45;;;;;;;3.92;1.27;;;;;;;;;;4915253;29;20035;-89
2022/09/20 08:16:12;;;;;;;10.68;1.75;;;;;;;;;;4927299;29;20047;-90
2022/09/20 08:18:50;;;;;;;5.90;1.40;;;;;;;;;;4908687;29;20050;-89
2022/09/20 08:21:16;;;;;;;3.45;1.42;;;;;;;;;;4910227;29;20035;-89
2022/09/20 08:23:42;;;;;;;6.88;1.15;;;;;;;;;;4919133;28;20111;-89
2022/09/20 08:26:17;;;;;;;3.10;1.00;;;;;;;;;;4952020;28;20026;-89
2022/09/20 08:28:44;;;;;;;11.35;2.65;;;;;;;;;;4961615;28;20047;-89
2022/09/20 08:31:15;;;;;;;3.40;1.33;;;;;;;;;;4947879;28;20046;-88
2022/09/20 08:33:42;;;;;;;4.93;1.20;;;;;;;;;;4948600;28;20038;-89
2022/09/20 08:36:11;;;;;;;4.93;1.48;;;;;;;;;;4948054;28;20545;-90
2022/09/20 08:38:37;;;;;;;7.18;1.60;;;;;;;;;;4949034;28;20037;-89
2022/09/20 08:41:06;;;;;;;2.85;1.15;;;;;;;;;;4933708;28;20041;-89
2022/09/20 08:43:35;;;;;;;3.45;1.23;;;;;;;;;;4967622;28;20023;-89
2022/09/20 08:46:02;;;;;;;2.20;0.57;;;;;;;;;;4950845;28;20034;-89
2022/09/20 08:48:33;;;;;;;6.72;2.53;;;;;;;;;;4942952;28;20023;-88
2022/09/20 08:51:00;;;;;;;7.90;1.52;;;;;;;;;;4944224;28;20034;-89
2022/09/20 08:53:27;;;;;;;5.68;0.90;;;;;;;;;;4963696;28;20550;-89
2022/09/20 08:55:56;;;;;;;7.53;0.88;;;;;;;;;;4931946;28;20031;-89
2022/09/20 08:58:23;;;;;;;3.55;0.80;;;;;;;;;;4929237;28;20037;-89
2022/09/20 09:00:49;;;;;;;3.53;0.80;;;;;;;;;;4968630;28;20252;-89
2022/09/20 09:03:16;;;;;;;5.85;1.27;;;;;;;;;;4931475;28;20494;-89
2022/09/20 09:05:46;;;;;;;5.00;1.35;;;;;;;;;;4950936;28;20026;-89
2022/09/20 09:08:17;;;;;;;4.38;1.30;;;;;;;;;;4942908;28;20042;-89
2022/09/20 09:10:57;;;;;;;3.00;0.77;;;;;;;;;;4950449;28;20038;-88
2022/09/20 09:13:34;;;;;;;4.22;1.27;;;;;;;;;;4965487;28;20037;-88
2022/09/20 09:16:05;;;;;;;8.55;0.73;;;;;;;;;;4946768;28;20557;-89
2022/09/20 09:18:39;;;;;;;3.30;0.75;;;;;;;;;;4941990;28;20475;-89
2022/09/20 09:21:07;;;;;;;4.85;0.75;;;;;;;;;;4946538;28;20042;-88
2022/09/20 09:24:00;;;;;;;4.82;1.17;;;;;;;;;;4958921;28;20113;-89
2022/09/20 09:26:27;;;;;;;3.80;0.90;;;;;;;;;;4913955;28;20747;-88
2022/09/20 09:29:12;;;;;;;2.55;1.30;;;;;;;;;;4928566;29;20042;-88
2022/09/20 09:31:38;;;;;;;6.43;1.15;;;;;;;;;;4938018;28;20421;-88
2022/09/20 09:34:04;;;;;;;4.28;0.65;;;;;;;;;;4911597;28;20303;-89
2022/09/20 09:36:31;;;;;;;6.65;1.40;;;;;;;;;;4928088;28;20943;-88
2022/09/20 09:39:17;;;;;;;6.38;1.05;;;;;;;;;;4944615;28;20028;-88
2022/09/20 09:41:45;;;;;;;5.90;0.98;;;;;;;;;;4957836;28;20044;-89
2022/09/20 09:44:26;;;;;;;3.20;0.95;;;;;;;;;;4941630;28;20041;-89
2022/09/20 09:46:53;;;;;;;3.83;1.02;;;;;;;;;;4941761;28;20039;-89
2022/09/20 09:49:19;;;;;;;5.30;0.85;;;;;;;;;;4941622;28;20934;-89
2022/09/20 09:52:03;;;;;;;10.05;1.13;;;;;;;;;;4961207;28;20098;-89
2022/09/20 09:54:32;;;;;;;6.50;0.90;;;;;;;;;;4939755;28;20031;-89
2022/09/20 09:57:09;;;;;;;4.88;1.25;;;;;;;;;;4945911;28;20054;-88
2022/09/20 09:59:57;;;;;;;7.80;1.38;;;;;;;;;;4958907;28;20090;-89
2022/09/20 10:02:41;;;;;;;3.35;0.93;;;;;;;;;;4957049;28;20035;-89
2022/09/20 10:05:14;;;;;;;3.78;0.93;;;;;;;;;;4943345;28;20070;-88
2022/09/20 10:07:44;;;;;;;4.80;1.20;;;;;;;;;;4944993;28;20321;-88
2022/09/20 10:10:28;;;;;;;4.63;1.10;;;;;;;;;;4958284;28;20728;-88
2022/09/20 10:13:13;;;;;;;3.58;1.05;;;;;;;;;;4944393;28;20582;-88
2022/09/20 10:16:19;;;;;;;2.92;1.35;;;;;;;;;;4942637;28;20079;-89
2022/09/20 10:19:05;;;;;;;0.65;0.60;;;;;;;;;;4858756;29;20567;-89
2022/09/20 10:21:42;;;;;;;7.80;1.20;;;;;;;;;;4863024;29;20140;-89
2022/09/20 10:24:08;;;;;;;2.63;1.02;;;;;;;;;;4916030;28;20089;-89
2022/09/20 10:26:53;;;;;;;3.83;0.98;;;;;;;;;;4956113;28;20528;-89
2022/09/20 10:29:32;;;;;;;7.25;1.33;;;;;;;;;;4939032;28;20506;-89
2022/09/20 10:32:17;;;;;;;3.95;1.13;;;;;;;;;;4944244;28;20043;-89
2022/09/20 10:34:46;;;;;;;4.47;1.23;;;;;;;;;;4940908;28;20047;-89
2022/09/20 10:37:21;;;;;;;5.18;1.27;;;;;;;;;;4957190;28;20501;-89
2022/09/20 10:39:54;;;;;;;7.67;1.57;;;;;;;;;;4939972;28;20090;-89
2022/09/20 10:45:30;;;;;;;7.05;1.27;;;;;;;;;;4940814;28;20077;-89
2022/09/20 10:48:18;;;;;;;12.85;1.90;;;;;;;;;;4957604;28;20035;-89
2022/09/20 10:50:47;;;;;;;9.55;1.85;;;;;;;;;;4941319;28;20031;-89
2022/09/20 10:53:17;;;;;;;6.35;1.40;;;;;;;;;;4942769;28;20538;-88
2022/09/20 10:55:51;;;;;;;5.78;1.33;;;;;;;;;;4937895;28;20043;-88
2022/09/20 10:58:36;;;;;;;4.55;1.05;;;;;;;;;;4942972;28;20578;-88
2022/09/20 11:01:05;;;;;;;7.90;1.77;;;;;;;;;;4942024;28;20034;-89
2022/09/20 11:03:49;;;;;;;10.00;1.20;;;;;;;;;;4941615;28;20027;-89
2022/09/20 11:06:24;;;;;;;8.82;1.15;;;;;;;;;;4940475;28;20542;-89
2022/09/20 11:08:53;;;;;;;8.60;1.10;;;;;;;;;;4941282;28;20082;-89
2022/09/20 11:11:19;;;;;;;7.40;1.30;;;;;;;;;;4955563;28;20332;-88
2022/09/20 11:13:48;;;;;;;7.72;1.25;;;;;;;;;;4958799;28;20039;-88
2022/09/20 11:16:17;;;;;;;5.18;1.50;;;;;;;;;;4945984;28;20395;-88
2022/09/20 11:19:02;;;;;;;4.10;1.02;;;;;;;;;;4941287;28;20578;-89
2022/09/20 11:21:35;;;;;;;6.88;1.35;;;;;;;;;;4936719;28;20034;-89
2022/09/20 11:24:01;;;;;;;7.55;1.52;;;;;;;;;;4942262;28;20044;-88
2022/09/20 11:26:34;;;;;;;6.07;1.67;;;;;;;;;;4963083;28;20533;-88
2022/09/20 11:29:15;;;;;;;8.70;2.15;;;;;;;;;;4942378;28;20031;-89
2022/09/20 11:36:52;;;;;;;11.18;1.98;;;;;;;;;;4942671;28;20113;-91
2022/09/20 11:39:23;;;;;;;6.82;1.88;;;;;;;;;;4940695;28;20030;-90
2022/09/20 11:41:52;;;;;;;5.78;1.60;;;;;;;;;;4941001;28;20225;-90
2022/09/20 11:44:19;;;;;;;5.57;1.17;;;;;;;;;;4947267;28;20113;-90
2022/09/20 11:46:58;;;;;;;5.05;1.13;;;;;;;;;;4954078;28;20034;-91
2022/09/20 11:49:51;;;;;;;11.65;1.52;;;;;;;;;;4961016;28;20442;-90
2022/09/20 11:52:27;;;;;;;3.28;1.33;;;;;;;;;;4926941;28;20660;-90
2022/09/20 11:54:53;;;;;;;6.85;1.25;;;;;;;;;;4939240;28;20371;-90
2022/09/20 11:57:20;;;;;;;6.80;1.50;;;;;;;;;;4943479;28;20035;-91
2022/09/20 11:59:54;;;;;;;4.75;1.95;;;;;;;;;;4942777;28;20486;-88
2022/09/20 12:02:29;;;;;;;2.42;0.82;;;;;;;;;;4945022;28;20464;-88
2022/09/20 12:04:55;;;;;;;8.80;1.33;;;;;;;;;;4942580;28;20458;-88
2022/09/20 12:07:36;;;;;;;4.38;1.20;;;;;;;;;;4938721;28;20110;-88
2022/09/20 12:10:23;;;;;;;9.55;1.75;;;;;;;;;;4942218;28;20359;-88
2022/09/20 12:12:54;;;;;;;7.00;1.30;;;;;;;;;;4942131;28;20102;-88
2022/09/20 12:15:25;;;;;;;7.15;1.33;;;;;;;;;;4943122;28;20090;-88
2022/09/20 12:17:51;;;;;;;4.68;1.25;;;;;;;;;;4936196;28;20046;-88
2022/09/20 12:20:38;;;;;;;4.30;1.10;;;;;;;;;;4960372;28;20149;-89
2022/09/20 12:23:23;;;;;;;3.45;0.95;;;;;;;;;;4940919;28;20043;-88
2022/09/20 12:26:00;;;;;;;4.68;1.17;;;;;;;;;;4945287;28;20034;-88
2022/09/20 12:28:36;;;;;;;8.85;1.25;;;;;;;;;;4944753;28;20038;-87
2022/09/20 12:31:18;;;;;;;9.30;1.25;;;;;;;;;;4956935;28;20039;-88
2022/09/20 12:34:02;;;;;;;6.53;1.30;;;;;;;;;;4946791;28;20086;-87
2022/09/20 12:36:34;;;;;;;4.75;1.40;;;;;;;;;;4938874;28;20106;-88
2022/09/20 12:39:00;;;;;;;5.57;1.48;;;;;;;;;;4910067;29;20602;-88
2022/09/20 12:41:27;;;;;;;2.28;1.08;;;;;;;;;;4907985;29;20028;-88
2022/09/20 12:43:55;;;;;;;5.75;1.30;;;;;;;;;;4907699;29;20050;-87
2022/09/20 12:46:40;;;;;;;5.13;1.45;;;;;;;;;;4911184;29;20776;-88
2022/09/20 12:52:49;;;;;;;5.03;1.10;;;;;;;;;;4908929;29;20043;-88
2022/09/20 12:54:52;;;;;;;2.45;1.20;;;;;;;;;;4917710;29;20059;-89
2022/09/20 12:57:27;;;;;;;2.17;1.00;;;;;;;;;;4911758;29;20483;-88
2022/09/20 12:59:58;;;;;;;4.70;1.15;;;;;;;;;;4918263;29;20083;-89
2022/09/20 13:02:46;;;;;;;4.28;1.58;;;;;;;;;;4906879;29;20039;-89
2022/09/20 13:05:44;;;;;;;5.05;1.52;;;;;;;;;;4920332;29;20032;-88
2022/09/20 13:08:14;;;;;;;1.15;0.57;;;;;;;;;;4876496;29;20051;-88
2022/09/20 13:10:43;;;;;;;3.42;0.98;;;;;;;;;;4926563;29;20051;-88
2022/09/20 13:13:15;;;;;;;4.25;1.15;;;;;;;;;;4920415;29;20028;-89
2022/09/20 13:15:47;;;;;;;2.95;0.98;;;;;;;;;;4911615;29;20081;-88
2022/09/20 13:18:14;;;;;;;4.60;1.33;;;;;;;;;;4905041;29;20028;-88
2022/09/20 13:20:41;;;;;;;5.60;1.75;;;;;;;;;;4896801;29;20047;-89
2022/09/20 13:23:16;;;;;;;6.35;1.10;;;;;;;;;;4895526;29;20062;-88
2022/09/20 13:25:43;;;;;;;3.85;1.08;;;;;;;;;;4906496;29;20337;-88
2022/09/20 13:28:24;;;;;;;6.93;1.60;;;;;;;;;;4905309;29;20032;-88
2022/09/20 13:30:50;;;;;;;5.03;1.25;;;;;;;;;;4914282;29;20039;-88
2022/09/20 13:33:16;;;;;;;6.15;1.20;;;;;;;;;;4907834;29;20091;-89
2022/09/20 13:35:47;;;;;;;3.85;1.00;;;;;;;;;;4922397;28;20055;-89
2022/09/20 13:38:14;;;;;;;5.40;1.50;;;;;;;;;;4958172;28;20073;-89
2022/09/20 13:40:46;;;;;;;3.67;1.00;;;;;;;;;;4947778;28;20602;-89
2022/09/20 13:43:30;;;;;;;3.30;1.08;;;;;;;;;;4946225;28;20023;-89
2022/09/20 13:45:58;;;;;;;4.65;1.02;;;;;;;;;;4941759;28;20027;-88
2022/09/20 13:48:31;;;;;;;5.22;0.85;;;;;;;;;;4929124;28;20169;-89
2022/09/20 13:50:58;;;;;;;5.25;1.00;;;;;;;;;;4930213;28;20045;-88
2022/09/20 13:53:25;;;;;;;7.25;1.45;;;;;;;;;;4942907;28;20533;-89
2022/09/20 13:55:54;;;;;;;6.75;0.80;;;;;;;;;;4930105;28;20113;-89
2022/09/20 13:58:20;;;;;;;1.33;0.80;;;;;;;;;;4961916;28;20251;-89
2022/09/20 14:00:48;;;;;;;3.97;0.95;;;;;;;;;;4962328;28;20039;-89
2022/09/20 14:03:16;;;;;;;7.30;1.15;;;;;;;;;;4963482;28;20062;-89
2022/09/20 14:05:47;;;;;;;4.68;1.63;;;;;;;;;;4947964;28;20031;-89
2022/09/20 14:08:18;;;;;;;5.70;1.27;;;;;;;;;;4942999;28;20701;-88
2022/09/20 14:10:50;;;;;;;5.90;0.85;;;;;;;;;;4938783;28;20035;-89
2022/09/20 14:13:16;;;;;;;1.48;0.60;;;;;;;;;;4937036;28;20406;-89
2022/09/20 14:15:43;;;;;;;5.00;1.27;;;;;;;;;;4930519;28;20031;-89
2022/09/20 14:18:15;;;;;;;5.78;0.90;;;;;;;;;;4922654;28;20030;-89
2022/09/20 14:20:42;;;;;;;2.17;0.80;;;;;;;;;;4960736;28;20370;-89
2022/09/20 14:23:24;;;;;;;4.32;0.85;;;;;;;;;;4937109;28;20045;-89
2022/09/20 14:26:09;;;;;;;2.67;0.95;;;;;;;;;;4959763;28;20053;-89
2022/09/20 14:28:35;;;;;;;4.20;1.10;;;;;;;;;;4939754;28;20471;-88
2022/09/20 14:31:06;;;;;;;1.95;0.82;;;;;;;;;;4931668;28;20379;-89
2022/09/20 14:33:32;;;;;;;3.78;0.90;;;;;;;;;;4941416;28;20490;-89
2022/09/20 14:35:59;;;;;;;7.20;1.25;;;;;;;;;;4932491;28;20135;-89
2022/09/20 14:38:26;;;;;;;5.00;1.10;;;;;;;;;;4920459;29;20039;-89
2022/09/20 14:40:55;;;;;;;4.75;1.85;;;;;;;;;;4920171;29;20040;-89
2022/09/20 14:43:30;;;;;;;7.00;1.65;;;;;;;;;;4902378;29;20040;-89
2022/09/20 14:45:57;;;;;;;4.57;1.17;;;;;;;;;;4915523;29;20027;-89
2022/09/20 14:48:23;;;;;;;7.55;1.85;;;;;;;;;;4890412;29;20118;-89
2022/09/20 14:51:08;;;;;;;4.05;0.90;;;;;;;;;;4898611;29;20568;-89
2022/09/20 14:53:37;;;;;;;9.05;1.20;;;;;;;;;;4899651;29;20032;-89
2022/09/20 14:56:06;;;;;;;3.58;1.33;;;;;;;;;;4904303;29;20389;-89
2022/09/20 14:58:33;;;;;;;4.47;1.42;;;;;;;;;;4921927;29;20035;-89
2022/09/20 15:01:05;;;;;;;7.68;1.40;;;;;;;;;;4901759;29;20534;-89
2022/09/20 15:03:39;;;;;;;7.70;1.60;;;;;;;;;;4908858;29;20118;-89
2022/09/20 15:06:14;;;;;;;3.67;0.88;;;;;;;;;;4911198;29;20036;-89
2022/09/20 15:08:41;;;;;;;3.22;0.85;;;;;;;;;;4921155;29;20487;-89
2022/09/20 15:11:07;;;;;;;3.75;1.10;;;;;;;;;;4923650;29;20083;-88
2022/09/20 15:13:34;;;;;;;4.32;0.75;;;;;;;;;;4887064;29;20443;-88
2022/09/20 15:16:00;;;;;;;5.18;0.95;;;;;;;;;;4925495;29;20119;-89
2022/09/20 15:18:28;;;;;;;2.97;0.90;;;;;;;;;;4903550;29;20032;-88
2022/09/20 15:20:54;;;;;;;3.40;0.90;;;;;;;;;;4905033;29;20039;-88
2022/09/20 15:23:21;;;;;;;4.22;0.50;;;;;;;;;;4925178;29;20115;-89
2022/09/20 15:25:51;;;;;;;3.83;0.80;;;;;;;;;;4889428;29;20521;-89
2022/09/20 15:28:17;;;;;;;5.50;0.95;;;;;;;;;;4912576;29;20030;-89
2022/09/20 15:30:46;;;;;;;7.38;1.33;;;;;;;;;;4921882;29;20685;-88
2022/09/20 15:33:12;;;;;;;3.08;0.90;;;;;;;;;;4901847;29;20031;-88
2022/09/20 15:35:52;;;;;;;5.40;0.98;;;;;;;;;;4922456;28;20086;-92
2022/09/20 15:38:18;;;;;;;6.15;1.30;;;;;;;;;;4940764;28;20038;-89
2022/09/20 15:40:48;;;;;;;5.88;0.80;;;;;;;;;;4946696;28;20038;-89
2022/09/20 15:43:22;;;;;;;7.38;0.98;;;;;;;;;;4937090;28;20039;-88
2022/09/20 15:45:56;;;;;;;2.85;0.68;;;;;;;;;;4944011;28;20125;-89
2022/09/20 15:48:24;;;;;;;4.97;1.00;;;;;;;;;;4954677;28;20030;-89
2022/09/20 15:51:00;;;;;;;6.65;1.27;;;;;;;;;;4944621;28;20045;-88
2022/09/20 15:53:30;;;;;;;8.00;0.90;;;;;;;;;;4942858;28;20057;-89
2022/09/20 15:55:57;;;;;;;6.95;2.20;;;;;;;;;;4931243;28;20066;-89
2022/09/20 15:58:24;;;;;;;9.65;2.05;;;;;;;;;;4928904;28;20031;-89
2022/09/20 16:00:50;;;;;;;6.78;1.23;;;;;;;;;;4946404;28;20369;-89
2022/09/20 16:03:17;;;;;;;2.25;1.10;;;;;;;;;;4924350;28;20487;-90
2022/09/20 16:05:43;;;;;;;3.63;0.90;;;;;;;;;;4925691;28;20095;-89
2022/09/20 16:08:16;;;;;;;4.38;0.63;;;;;;;;;;4936097;28;20117;-89
2022/09/20 16:10:43;;;;;;;3.45;1.05;;;;;;;;;;4931352;28;20032;-89
2022/09/20 16:13:09;;;;;;;5.18;1.17;;;;;;;;;;4930102;28;20705;-89
2022/09/20 16:15:37;;;;;;;5.13;1.10;;;;;;;;;;4932548;28;20042;-89
2022/09/20 16:20:47;;;;;;;6.88;1.10;;;;;;;;;;4964487;28;20042;-88
2022/09/20 16:23:14;;;;;;;6.47;1.00;;;;;;;;;;4930183;28;20475;-88
2022/09/20 16:25:43;;;;;;;5.00;1.17;;;;;;;;;;4944078;28;20039;-89
2022/09/20 16:28:09;;;;;;;7.80;1.50;;;;;;;;;;4942493;28;20043;-89
2022/09/20 16:30:35;;;;;;;9.23;1.48;;;;;;;;;;4924040;28;20049;-88
2022/09/20 16:33:05;;;;;;;9.45;1.60;;;;;;;;;;4927021;28;20035;-89
2022/09/20 16:35:43;;;;;;;14.00;1.90;;;;;;;;;;4931100;28;20038;-89
2022/09/20 16:38:09;;;;;;;10.38;1.80;;;;;;;;;;4938976;28;20039;-89
2022/09/20 16:40:36;;;;;;;10.63;1.42;;;;;;;;;;4931364;28;20502;-87
2022/09/20 16:43:02;;;;;;;6.28;1.55;;;;;;;;;;4941365;28;21508;-88
2022/09/20 16:45:28;;;;;;;7.28;1.40;;;;;;;;;;4929500;28;20034;-89
2022/09/20 16:47:56;;;;;;;7.43;1.17;;;;;;;;;;4938777;28;20523;-88
2022/09/20 16:50:23;;;;;;;6.75;1.13;;;;;;;;;;4948517;28;20035;-88
2022/09/20 16:52:49;;;;;;;7.28;1.58;;;;;;;;;;4946696;28;20081;-88
2022/09/20 16:55:16;;;;;;;6.50;1.60;;;;;;;;;;4947715;28;20038;-89
2022/09/20 16:57:51;;;;;;;14.52;1.60;;;;;;;;;;4944337;28;20036;-89
2022/09/20 17:00:20;;;;;;;13.40;2.08;;;;;;;;;;4957650;28;20553;-89
2022/09/20 17:02:50;;;;;;;6.53;1.42;;;;;;;;;;4947786;28;20031;-88
2022/09/20 17:05:17;;;;;;;7.05;1.30;;;;;;;;;;4957592;28;20038;-88